Time;durP1;ratioP1;P1;durP2;ratioP2;P2;SDS_P1;SDS_P2;PMS_P1;PMS_P2;Temp;Humidity;BMP_temperature;BMP_pressure;BME280_temperature;BME280_humidity;BME280_pressure;Samples;Min_cycle;Max_cycle;Signal;HPM_P1;HPM_P2
2023/01/24 00:01:29;;;;;;;12.82;11.10;;;7.00;66.50;;;;;;5046912;28;20053;-47
2023/01/24 00:03:55;;;;;;;15.20;11.10;;;7.00;66.50;;;;;;5047162;28;20505;-47
2023/01/24 00:06:22;;;;;;;15.93;11.88;;;7.00;66.60;;;;;;5049330;28;20044;-47
2023/01/24 00:08:49;;;;;;;15.45;11.40;;;7.00;66.60;;;;;;5043527;28;20076;-50
2023/01/24 00:11:18;;;;;;;16.52;12.25;;;7.00;66.60;;;;;;5050540;28;20043;-46
2023/01/24 00:13:47;;;;;;;14.07;11.38;;;7.00;66.70;;;;;;5045824;28;20033;-47
2023/01/24 00:16:16;;;;;;;15.32;10.68;;;7.00;66.70;;;;;;5046859;28;20072;-51
2023/01/24 00:18:44;;;;;;;14.05;10.85;;;7.00;66.60;;;;;;5042763;28;20041;-46
2023/01/24 00:21:14;;;;;;;16.52;12.50;;;7.00;67.30;;;;;;5050151;28;20049;-47
2023/01/24 00:23:49;;;;;;;16.58;12.73;;;7.00;66.60;;;;;;5040573;28;20132;-46
2023/01/24 00:26:17;;;;;;;16.08;12.30;;;7.00;66.60;;;;;;5041510;28;20030;-50
2023/01/24 00:28:49;;;;;;;16.38;13.05;;;7.00;66.60;;;;;;5042866;28;20468;-49
2023/01/24 00:31:16;;;;;;;15.23;12.05;;;7.00;67.30;;;;;;5044396;28;20083;-46
2023/01/24 00:33:46;;;;;;;19.63;14.18;;;7.00;66.70;;;;;;5044663;28;20064;-50
2023/01/24 00:36:17;;;;;;;16.95;13.15;;;7.00;66.80;;;;;;5039366;28;20037;-47
2023/01/24 00:38:44;;;;;;;17.98;12.40;;;7.00;66.80;;;;;;5041695;28;20124;-49
2023/01/24 00:41:13;;;;;;;16.55;12.93;;;7.00;66.80;;;;;;5040794;28;20060;-47
2023/01/24 00:43:39;;;;;;;17.67;12.38;;;7.00;66.90;;;;;;5047315;28;20037;-47
2023/01/24 00:46:14;;;;;;;16.20;12.32;;;7.00;66.90;;;;;;5028065;28;20099;-49
2023/01/24 00:48:40;;;;;;;17.48;12.73;;;7.00;66.90;;;;;;5040434;28;20048;-49
2023/01/24 00:51:09;;;;;;;18.60;12.93;;;7.00;66.90;;;;;;5045820;28;20046;-46
2023/01/24 00:53:49;;;;;;;17.08;12.52;;;7.10;67.60;;;;;;5044273;28;20581;-46
2023/01/24 00:56:21;;;;;;;17.40;13.10;;;7.10;67.00;;;;;;5048910;28;20037;-49
2023/01/24 00:58:50;;;;;;;17.30;12.52;;;7.10;67.10;;;;;;5032890;28;20047;-47
2023/01/24 01:01:19;;;;;;;16.73;12.35;;;7.10;67.10;;;;;;5039334;28;20116;-51
2023/01/24 01:03:49;;;;;;;16.85;12.75;;;7.10;67.60;;;;;;5044995;28;20131;-46
2023/01/24 01:06:16;;;;;;;16.48;12.52;;;7.10;67.60;;;;;;5048972;28;20029;-47
2023/01/24 01:08:44;;;;;;;18.73;13.43;;;7.00;66.90;;;;;;5050053;28;20037;-49
2023/01/24 01:11:16;;;;;;;16.50;12.55;;;7.00;66.90;;;;;;5043425;28;20124;-47
2023/01/24 01:13:48;;;;;;;16.52;13.07;;;7.00;67.00;;;;;;5037384;28;20036;-46
2023/01/24 01:16:18;;;;;;;17.75;13.20;;;7.00;67.00;;;;;;5046895;28;20110;-48
2023/01/24 01:18:47;;;;;;;16.63;12.43;;;7.00;67.00;;;;;;5036824;28;20540;-47
2023/01/24 01:21:18;;;;;;;17.77;13.68;;;7.10;67.10;;;;;;5025458;28;20048;-49
2023/01/24 01:23:45;;;;;;;16.52;13.07;;;7.00;67.30;;;;;;5046974;28;20485;-51
2023/01/24 01:26:19;;;;;;;16.63;12.20;;;7.00;67.30;;;;;;5043506;28;20045;-51
2023/01/24 01:28:46;;;;;;;18.52;13.65;;;7.10;67.40;;;;;;5035635;28;20140;-49
2023/01/24 01:31:15;;;;;;;18.52;13.55;;;7.10;67.40;;;;;;5037022;28;20047;-47
2023/01/24 01:33:47;;;;;;;18.58;13.98;;;7.00;67.20;;;;;;5046555;28;20098;-48
2023/01/24 01:36:14;;;;;;;20.05;13.88;;;7.10;67.30;;;;;;5048792;28;20036;-46
2023/01/24 01:38:45;;;;;;;22.42;15.82;;;7.10;67.40;;;;;;5045379;28;20045;-50
2023/01/24 01:41:14;;;;;;;17.70;13.80;;;7.00;67.30;;;;;;5046897;28;20132;-46
2023/01/24 01:44:37;;;;;;;22.83;16.10;;;7.10;67.40;;;;;;5048082;28;20044;-47
2023/01/24 01:46:44;;;;;;;21.73;15.88;;;7.00;67.30;;;;;;5044313;28;20123;-49
2023/01/24 01:49:21;;;;;;;19.35;15.38;;;7.10;67.10;;;;;;5044517;28;20039;-47
2023/01/24 01:51:50;;;;;;;18.75;14.52;;;7.10;67.00;;;;;;5041101;28;20076;-47
2023/01/24 01:54:36;;;;;;;21.33;15.60;;;7.00;67.10;;;;;;5039042;28;20061;-47
2023/01/24 01:57:15;;;;;;;26.00;17.02;;;7.00;66.90;;;;;;5037862;28;20610;-48
2023/01/24 01:59:54;;;;;;;19.30;16.08;;;7.10;67.00;;;;;;5042253;28;20041;-49
2023/01/24 02:02:22;;;;;;;22.60;16.42;;;7.00;67.00;;;;;;5047832;28;20183;-47
2023/01/24 02:05:01;;;;;;;20.02;15.32;;;7.00;67.10;;;;;;5049215;28;20425;-46
2023/01/24 02:07:34;;;;;;;18.25;14.30;;;7.00;67.00;;;;;;5042512;28;20065;-46
2023/01/24 02:10:04;;;;;;;17.77;14.38;;;7.00;67.00;;;;;;5049212;28;20037;-48
2023/01/24 02:12:38;;;;;;;18.35;13.98;;;7.00;67.10;;;;;;5049002;28;20523;-46
2023/01/24 02:18:00;;;;;;;18.63;14.02;;;7.00;67.20;;;;;;5048202;28;20441;-48
2023/01/24 02:20:45;;;;;;;20.20;14.55;;;7.00;67.40;;;;;;5045024;28;20057;-47
2023/01/24 02:23:50;;;;;;;19.02;13.70;;;7.00;67.40;;;;;;5043202;28;20570;-47
2023/01/24 02:26:21;;;;;;;17.58;12.77;;;7.00;67.30;;;;;;5046570;28;20045;-50
2023/01/24 02:28:56;;;;;;;18.60;12.57;;;7.00;67.40;;;;;;5039998;28;20087;-51
2023/01/24 02:31:26;;;;;;;16.80;12.38;;;7.00;67.40;;;;;;5047171;28;20506;-50
2023/01/24 02:33:55;;;;;;;17.48;12.18;;;7.00;67.30;;;;;;5042067;28;20113;-51
2023/01/24 02:36:25;;;;;;;17.02;12.57;;;7.00;67.30;;;;;;5046608;28;20432;-50
2023/01/24 02:39:01;;;;;;;17.88;13.05;;;7.00;67.20;;;;;;5047224;28;20041;-51
2023/01/24 02:41:44;;;;;;;18.55;12.70;;;7.00;67.20;;;;;;5046703;28;20049;-50
2023/01/24 02:44:18;;;;;;;15.25;11.32;;;7.00;67.10;;;;;;5042793;28;20053;-46
2023/01/24 02:46:46;;;;;;;16.98;11.93;;;7.20;67.30;;;;;;5043299;28;20512;-46
2023/01/24 02:49:13;;;;;;;15.73;12.55;;;7.00;67.30;;;;;;5046624;28;20037;-48
2023/01/24 02:54:27;;;;;;;18.02;12.13;;;7.00;67.20;;;;;;5038780;28;20166;-48
2023/01/24 02:59:41;;;;;;;12.98;10.23;;;7.00;67.00;;;;;;5048100;28;20111;-50
2023/01/24 03:02:08;;;;;;;14.95;10.98;;;7.00;66.90;;;;;;5044253;28;20577;-47
2023/01/24 03:04:39;;;;;;;13.55;10.15;;;7.00;66.80;;;;;;5038582;28;20038;-50
2023/01/24 03:07:07;;;;;;;13.18;10.52;;;7.00;66.80;;;;;;5043414;28;20041;-47
2023/01/24 03:09:49;;;;;;;12.85;10.50;;;7.00;66.70;;;;;;5039546;28;20223;-46
2023/01/24 03:34:49;;;;;;;11.82;8.30;;;6.80;66.30;;;;;;5030229;28;20037;-46
2023/01/24 03:40:20;;;;;;;11.82;8.07;;;6.80;66.20;;;;;;5042424;28;20442;-50
2023/01/24 03:42:47;;;;;;;11.13;8.45;;;6.80;66.00;;;;;;5040439;28;20132;-49
2023/01/24 03:45:31;;;;;;;10.38;7.68;;;6.80;66.20;;;;;;5051117;28;20513;-48
2023/01/24 03:48:09;;;;;;;8.40;7.30;;;6.80;66.10;;;;;;5047064;28;20045;-50
2023/01/24 03:53:30;;;;;;;8.80;6.78;;;6.70;66.10;;;;;;5048598;28;20079;-48
2023/01/24 03:56:00;;;;;;;8.97;7.57;;;6.70;66.10;;;;;;5050593;28;20048;-49
2023/01/24 03:58:32;;;;;;;9.00;6.95;;;6.80;66.10;;;;;;5043427;28;20128;-50
2023/01/24 04:01:03;;;;;;;11.45;7.75;;;6.70;66.00;;;;;;5049675;28;20041;-49
2023/01/24 04:03:49;;;;;;;11.10;7.45;;;6.70;65.90;;;;;;5049163;28;20045;-52
2023/01/24 04:06:18;;;;;;;10.52;7.15;;;6.70;65.90;;;;;;5045782;28;20096;-52
2023/01/24 04:08:45;;;;;;;8.35;6.80;;;6.70;65.90;;;;;;5044429;28;20033;-50
2023/01/24 04:11:13;;;;;;;7.68;6.18;;;6.70;65.90;;;;;;5049845;28;20439;-46
2023/01/24 04:13:42;;;;;;;9.18;7.47;;;6.70;65.90;;;;;;5032878;28;20045;-48
2023/01/24 04:16:14;;;;;;;8.70;7.10;;;6.70;66.00;;;;;;5042372;28;20044;-47
2023/01/24 04:18:51;;;;;;;7.93;6.53;;;6.70;66.10;;;;;;5036965;28;20045;-49
2023/01/24 04:21:22;;;;;;;8.68;7.22;;;6.70;66.10;;;;;;5048002;28;20053;-47
2023/01/24 04:23:55;;;;;;;9.45;6.80;;;6.70;66.20;;;;;;5043666;28;20099;-47
2023/01/24 04:26:26;;;;;;;9.40;6.78;;;6.70;66.10;;;;;;5042726;28;20052;-47
2023/01/24 04:28:54;;;;;;;8.93;6.60;;;6.70;66.10;;;;;;5042177;28;20041;-46
2023/01/24 04:31:21;;;;;;;10.30;7.65;;;6.70;66.10;;;;;;5042115;28;20045;-50
2023/01/24 04:34:06;;;;;;;10.10;7.65;;;6.70;66.00;;;;;;5050921;28;20040;-49
2023/01/24 04:36:38;;;;;;;9.30;7.45;;;6.70;66.00;;;;;;5045052;28;20095;-47
2023/01/24 04:39:05;;;;;;;9.43;6.78;;;6.70;65.80;;;;;;5049301;28;20045;-48
2023/01/24 04:41:45;;;;;;;9.80;7.47;;;6.70;65.80;;;;;;5049015;28;20045;-50
2023/01/24 04:44:12;;;;;;;9.85;7.32;;;6.70;65.80;;;;;;5048974;28;20045;-47
2023/01/24 04:46:41;;;;;;;8.40;6.68;;;6.70;65.80;;;;;;5044363;28;20068;-45
2023/01/24 04:49:11;;;;;;;8.45;6.90;;;6.70;66.00;;;;;;5049827;28;20452;-46
2023/01/24 04:51:42;;;;;;;8.20;6.72;;;6.70;65.90;;;;;;5049894;28;20413;-47
2023/01/24 04:54:18;;;;;;;6.47;5.82;;;6.70;65.90;;;;;;5046534;28;20117;-48
2023/01/24 04:56:48;;;;;;;8.27;6.28;;;6.70;65.80;;;;;;5047792;28;20431;-51
2023/01/24 04:59:23;;;;;;;9.02;6.55;;;6.70;65.70;;;;;;5049252;28;20048;-47
2023/01/24 05:01:50;;;;;;;6.97;6.00;;;6.70;65.70;;;;;;5049704;28;20045;-47
2023/01/24 05:04:35;;;;;;;7.45;5.75;;;6.70;65.60;;;;;;5043858;28;20052;-47
2023/01/24 05:07:07;;;;;;;8.40;6.10;;;6.70;65.70;;;;;;5048721;28;20033;-48
2023/01/24 05:09:34;;;;;;;8.18;6.53;;;6.70;65.70;;;;;;5032341;28;20433;-45
2023/01/24 05:12:08;;;;;;;9.07;6.65;;;6.70;65.60;;;;;;5049014;28;20060;-46
2023/01/24 05:14:38;;;;;;;7.88;6.15;;;6.70;65.50;;;;;;5037573;28;20044;-47
2023/01/24 05:17:05;;;;;;;9.13;6.80;;;6.70;65.60;;;;;;5045517;28;20041;-48
2023/01/24 05:19:34;;;;;;;7.47;6.03;;;6.60;65.60;;;;;;5048614;28;21054;-47
2023/01/24 05:22:01;;;;;;;9.07;7.32;;;6.60;65.60;;;;;;5037902;28;20044;-47
2023/01/24 05:24:34;;;;;;;7.65;5.93;;;6.60;65.60;;;;;;5041046;28;20996;-47
2023/01/24 05:27:03;;;;;;;8.80;6.57;;;6.60;65.60;;;;;;5038694;28;20128;-50
2023/01/24 05:29:32;;;;;;;8.73;6.18;;;6.60;65.60;;;;;;5040689;28;20091;-51
2023/01/24 05:32:02;;;;;;;8.18;6.70;;;6.60;65.70;;;;;;5041452;28;20033;-49
2023/01/24 05:34:31;;;;;;;8.20;6.53;;;6.70;65.90;;;;;;5039781;28;20037;-47
2023/01/24 05:36:58;;;;;;;8.88;7.28;;;6.70;65.90;;;;;;5036217;28;20052;-49
2023/01/24 05:39:25;;;;;;;8.18;6.07;;;6.70;65.90;;;;;;5041181;28;20055;-46
2023/01/24 05:41:52;;;;;;;7.38;6.35;;;6.70;65.80;;;;;;5039657;28;20067;-48
2023/01/24 05:44:21;;;;;;;9.25;6.57;;;6.70;65.70;;;;;;5039126;28;20140;-49
2023/01/24 05:46:49;;;;;;;8.13;6.80;;;6.70;65.70;;;;;;5039574;28;20037;-49
2023/01/24 05:49:26;;;;;;;8.30;6.60;;;6.70;65.60;;;;;;5035911;28;20057;-51
2023/01/24 05:51:56;;;;;;;9.65;7.28;;;6.70;65.50;;;;;;5039365;28;20077;-45
2023/01/24 05:54:39;;;;;;;8.70;6.90;;;6.70;65.40;;;;;;5037403;28;20037;-48
2023/01/24 05:57:24;;;;;;;8.38;6.70;;;6.60;65.30;;;;;;5038257;28;20040;-51
2023/01/24 06:00:10;;;;;;;9.65;6.93;;;6.60;65.30;;;;;;5044941;28;20582;-48
2023/01/24 06:03:00;;;;;;;8.25;6.25;;;6.70;65.40;;;;;;5025173;28;20041;-50
2023/01/24 06:05:29;;;;;;;8.63;6.90;;;6.60;65.30;;;;;;5046757;28;20132;-48
2023/01/24 06:07:56;;;;;;;8.88;6.80;;;6.60;65.40;;;;;;5046114;28;20379;-46
2023/01/24 06:10:29;;;;;;;8.85;7.05;;;6.60;65.40;;;;;;5045527;28;20040;-47
2023/01/24 06:13:04;;;;;;;9.25;7.32;;;6.60;65.40;;;;;;5047465;28;20041;-45
2023/01/24 06:15:32;;;;;;;9.40;7.03;;;6.60;65.50;;;;;;5046198;28;20102;-46
2023/01/24 06:18:02;;;;;;;9.25;6.63;;;6.60;65.30;;;;;;5039096;28;20048;-45
2023/01/24 06:20:32;;;;;;;9.30;7.18;;;6.60;65.40;;;;;;5040537;28;20052;-47
2023/01/24 06:23:17;;;;;;;9.75;6.93;;;6.60;65.40;;;;;;5038047;28;20126;-51
2023/01/24 06:25:44;;;;;;;8.88;6.93;;;6.60;65.20;;;;;;5034501;28;20588;-49
2023/01/24 06:28:11;;;;;;;8.43;7.03;;;6.60;65.40;;;;;;5045595;28;20525;-48
2023/01/24 06:30:41;;;;;;;7.75;6.63;;;6.60;65.40;;;;;;5043833;28;20041;-49
2023/01/24 06:33:17;;;;;;;10.98;7.80;;;6.60;65.30;;;;;;5046095;28;20103;-46
2023/01/24 06:36:09;;;;;;;10.60;7.72;;;6.60;65.20;;;;;;5038768;28;20040;-47
2023/01/24 06:38:36;;;;;;;8.52;6.82;;;6.60;65.00;;;;;;5038618;28;20523;-50
2023/01/24 06:41:09;;;;;;;8.60;6.85;;;6.60;65.30;;;;;;5040372;28;20051;-49
2023/01/24 06:43:38;;;;;;;9.75;7.32;;;6.50;65.90;;;;;;5046836;28;20051;-50
2023/01/24 06:46:11;;;;;;;9.35;7.47;;;6.60;65.30;;;;;;5047245;28;20102;-47
2023/01/24 06:48:44;;;;;;;9.32;6.75;;;6.60;65.20;;;;;;5042858;28;20463;-50
2023/01/24 06:51:15;;;;;;;11.32;7.95;;;6.50;65.00;;;;;;5046016;28;20412;-46
2023/01/24 06:53:42;;;;;;;9.85;8.18;;;6.50;65.30;;;;;;5048025;28;20045;-50
2023/01/24 06:56:11;;;;;;;11.95;8.88;;;6.50;65.30;;;;;;5042550;28;20046;-50
2023/01/24 06:58:38;;;;;;;9.55;7.35;;;6.50;65.50;;;;;;5043488;28;20631;-46
2023/01/24 07:01:05;;;;;;;8.98;7.57;;;6.50;65.40;;;;;;5047390;28;20056;-44
2023/01/24 07:03:37;;;;;;;9.15;7.68;;;6.50;65.40;;;;;;5045506;28;20056;-51
2023/01/24 07:06:03;;;;;;;11.00;8.05;;;6.60;65.60;;;;;;5043130;28;20044;-48
2023/01/24 07:08:30;;;;;;;11.52;8.55;;;6.60;65.60;;;;;;5051730;28;20057;-48
2023/01/24 07:10:58;;;;;;;11.63;8.32;;;6.60;65.50;;;;;;5051761;28;20707;-47
2023/01/24 07:13:27;;;;;;;11.73;7.50;;;6.60;65.50;;;;;;5046287;28;20049;-47
2023/01/24 07:15:59;;;;;;;11.20;8.50;;;6.60;65.60;;;;;;5041628;28;20116;-48
2023/01/24 07:18:28;;;;;;;12.43;8.80;;;6.60;65.50;;;;;;5050568;28;20408;-47
2023/01/24 07:20:55;;;;;;;11.40;8.77;;;6.60;65.30;;;;;;5051319;28;20037;-46
2023/01/24 07:23:32;;;;;;;10.38;9.20;;;6.60;65.20;;;;;;5050274;28;20152;-48
2023/01/24 07:26:03;;;;;;;12.80;9.90;;;6.60;65.20;;;;;;5042497;28;20049;-47
2023/01/24 07:28:32;;;;;;;14.40;10.30;;;6.60;65.10;;;;;;5048065;28;20063;-45
2023/01/24 07:30:58;;;;;;;13.43;10.45;;;6.60;65.20;;;;;;5050339;28;20389;-47
2023/01/24 07:33:25;;;;;;;12.88;10.15;;;6.60;65.10;;;;;;5050466;28;20037;-51
2023/01/24 07:35:52;;;;;;;13.05;9.80;;;6.60;65.10;;;;;;5047989;28;20116;-47
2023/01/24 07:38:18;;;;;;;12.73;10.45;;;6.50;65.10;;;;;;5051685;28;20074;-48
2023/01/24 07:40:45;;;;;;;13.43;10.18;;;6.50;65.10;;;;;;5044406;28;20040;-47
2023/01/24 07:43:19;;;;;;;15.32;11.27;;;6.50;65.00;;;;;;5047809;28;20196;-50
2023/01/24 07:45:46;;;;;;;;;;;6.60;64.90;;;;;;5050156;28;20045;-45
2023/01/24 07:48:13;;;;;;;11.73;8.82;;;6.60;64.80;;;;;;5050824;28;19932;-48
2023/01/24 07:50:40;;;;;;;12.25;9.65;;;6.60;65.10;;;;;;5051055;28;20061;-50
2023/01/24 07:53:09;;;;;;;12.93;10.48;;;6.60;65.10;;;;;;5041938;28;20068;-48
2023/01/24 07:55:38;;;;;;;12.73;9.13;;;6.60;65.10;;;;;;5051288;28;20049;-47
2023/01/24 07:58:06;;;;;;;12.88;9.80;;;6.50;65.10;;;;;;5051545;28;20047;-47
2023/01/24 08:00:33;;;;;;;11.88;8.55;;;6.60;65.30;;;;;;5051729;28;20576;-48
2023/01/24 08:02:59;;;;;;;13.57;9.73;;;6.60;65.20;;;;;;5045164;28;20037;-45
2023/01/24 08:05:26;;;;;;;12.00;9.18;;;6.60;65.50;;;;;;5050083;28;20045;-48
2023/01/24 08:07:54;;;;;;;12.60;9.77;;;6.60;65.20;;;;;;5050586;28;20045;-47
2023/01/24 08:10:23;;;;;;;11.35;8.50;;;6.60;65.30;;;;;;5049073;28;20124;-48
2023/01/24 08:12:50;;;;;;;13.95;9.18;;;6.60;65.10;;;;;;5044040;28;20413;-48
2023/01/24 08:15:17;;;;;;;11.55;9.00;;;6.60;64.90;;;;;;5050459;28;20044;-49
2023/01/24 08:17:44;;;;;;;11.32;8.80;;;6.60;64.80;;;;;;5049307;28;20045;-50
2023/01/24 08:20:11;;;;;;;9.70;8.25;;;6.60;64.80;;;;;;5044192;28;20041;-46
2023/01/24 08:22:39;;;;;;;11.27;8.23;;;6.70;65.00;;;;;;5050166;28;20059;-47
2023/01/24 08:25:23;;;;;;;12.52;8.70;;;6.70;64.80;;;;;;5050318;28;20128;-48
2023/01/24 08:27:50;;;;;;;10.63;8.68;;;6.70;64.80;;;;;;5050794;28;20040;-49
2023/01/24 08:30:19;;;;;;;11.52;9.65;;;6.70;64.80;;;;;;5041408;28;20638;-49
2023/01/24 08:32:47;;;;;;;12.15;9.43;;;6.70;64.60;;;;;;5047121;28;20155;-47
2023/01/24 08:35:14;;;;;;;13.25;9.05;;;6.70;64.60;;;;;;5050115;28;20488;-50
2023/01/24 08:37:41;;;;;;;12.88;9.85;;;6.80;64.70;;;;;;5042459;28;20052;-47
2023/01/24 08:40:08;;;;;;;10.68;8.88;;;6.70;64.70;;;;;;5039175;28;20120;-46
2023/01/24 08:42:35;;;;;;;11.95;8.85;;;6.70;64.60;;;;;;5049712;28;20472;-47
2023/01/24 08:45:02;;;;;;;13.43;9.57;;;6.70;64.60;;;;;;5042768;28;20041;-49
2023/01/24 08:47:31;;;;;;;14.27;10.30;;;6.70;64.70;;;;;;5049097;28;20041;-48
2023/01/24 08:49:58;;;;;;;12.95;9.20;;;6.70;64.80;;;;;;5045773;28;20485;-47
2023/01/24 08:52:24;;;;;;;12.45;9.43;;;6.70;65.00;;;;;;5050191;28;20039;-51
2023/01/24 08:54:53;;;;;;;14.50;9.80;;;6.80;65.00;;;;;;5048022;28;20040;-46
2023/01/24 08:57:20;;;;;;;11.85;8.93;;;6.80;64.80;;;;;;5049113;28;20143;-47
2023/01/24 08:59:47;;;;;;;13.70;9.98;;;6.80;64.80;;;;;;5083258;22;20047;-50
2023/01/24 09:02:16;;;;;;;13.20;9.73;;;6.90;64.80;;;;;;5057772;28;20527;-48
2023/01/24 09:04:42;;;;;;;12.73;9.65;;;6.90;64.80;;;;;;5068888;28;20501;-49
2023/01/24 09:07:12;;;;;;;13.90;10.05;;;6.90;64.80;;;;;;5053828;28;20546;-47
2023/01/24 09:09:39;;;;;;;12.55;10.02;;;6.90;64.70;;;;;;5064193;28;20033;-52
2023/01/24 09:12:08;;;;;;;13.45;10.18;;;6.90;64.60;;;;;;5064341;28;20071;-52
2023/01/24 09:14:34;;;;;;;13.52;9.57;;;7.00;64.40;;;;;;5053295;28;20041;-50
2023/01/24 09:17:02;;;;;;;12.43;9.30;;;7.00;64.30;;;;;;5068855;28;20041;-48
2023/01/24 09:19:30;;;;;;;11.43;9.13;;;7.00;64.20;;;;;;5070582;28;20470;-49
2023/01/24 09:21:57;;;;;;;13.75;9.80;;;7.00;64.20;;;;;;5070762;28;20041;-49
2023/01/24 09:24:24;;;;;;;12.32;9.85;;;7.00;64.20;;;;;;5066051;28;20040;-50
2023/01/24 09:26:51;;;;;;;11.25;8.73;;;7.00;64.20;;;;;;5066116;28;20130;-52
2023/01/24 09:29:21;;;;;;;11.85;9.60;;;7.10;64.10;;;;;;5059406;28;20040;-49
2023/01/24 09:31:50;;;;;;;11.13;8.90;;;7.10;64.00;;;;;;5070926;28;20123;-48
2023/01/24 09:34:17;;;;;;;11.52;9.05;;;7.10;64.00;;;;;;5069440;28;20036;-52
2023/01/24 09:36:47;;;;;;;12.00;9.10;;;7.10;63.90;;;;;;5067026;28;20935;-47
2023/01/24 09:39:15;;;;;;;10.70;8.45;;;7.10;63.80;;;;;;5065537;28;20056;-52
2023/01/24 09:42:05;;;;;;;11.48;9.60;;;7.10;64.00;;;;;;5052949;28;20057;-48
2023/01/24 09:45:00;;;;;;;12.52;9.38;;;7.10;63.50;;;;;;5069745;28;20412;-52
2023/01/24 09:47:57;;;;;;;12.68;9.40;;;7.20;63.50;;;;;;5063534;28;20032;-51
2023/01/24 09:50:34;;;;;;;11.98;9.18;;;7.20;63.40;;;;;;5062368;28;20076;-49
2023/01/24 09:53:04;;;;;;;12.43;9.05;;;7.20;63.50;;;;;;5068128;28;20039;-52
2023/01/24 09:55:36;;;;;;;12.25;9.35;;;7.20;63.70;;;;;;5057738;28;20098;-52
2023/01/24 09:58:08;;;;;;;10.88;8.48;;;7.40;63.70;;;;;;5064743;28;20052;-48
2023/01/24 10:00:38;;;;;;;10.88;8.50;;;7.30;63.70;;;;;;5068573;28;20539;-47
2023/01/24 10:03:18;;;;;;;11.95;9.15;;;7.30;63.90;;;;;;5063386;28;20090;-49
2023/01/24 10:05:51;;;;;;;13.55;9.70;;;7.30;63.60;;;;;;5065646;28;20553;-49
2023/01/24 10:08:30;;;;;;;11.20;9.07;;;7.40;63.90;;;;;;5068913;28;20127;-52
2023/01/24 10:11:02;;;;;;;12.07;9.40;;;7.40;63.80;;;;;;5069621;28;20098;-51
2023/01/24 10:13:34;;;;;;;10.27;8.82;;;7.50;63.80;;;;;;5067679;28;20043;-48
2023/01/24 10:16:18;;;;;;;;;;;7.50;63.60;;;;;;5068540;28;20044;-52
2023/01/24 10:19:00;;;;;;;9.52;7.63;;;7.50;63.40;;;;;;5061125;28;19950;-49
2023/01/24 10:22:01;;;;;;;13.70;10.27;;;7.60;63.20;;;;;;5068873;28;20066;-52
2023/01/24 10:24:34;;;;;;;12.73;9.85;;;7.60;63.10;;;;;;5059707;28;20059;-48
2023/01/24 10:27:25;;;;;;;13.00;9.52;;;7.60;63.40;;;;;;5049110;28;20561;-49
2023/01/24 10:29:58;;;;;;;12.88;10.10;;;7.70;63.20;;;;;;5051179;28;20041;-48
2023/01/24 10:32:32;;;;;;;14.23;10.55;;;7.70;63.50;;;;;;5059374;28;20378;-49
2023/01/24 10:35:23;;;;;;;12.85;10.45;;;7.70;63.30;;;;;;5069075;28;20039;-49
2023/01/24 10:37:55;;;;;;;15.15;11.90;;;7.70;63.00;;;;;;5066409;28;20131;-52
2023/01/24 10:40:27;;;;;;;12.98;11.52;;;7.70;63.30;;;;;;5059943;28;20064;-51
2023/01/24 10:42:55;;;;;;;13.75;9.90;;;7.80;63.40;;;;;;5063933;28;20124;-52
2023/01/24 10:45:52;;;;;;;14.05;10.30;;;7.80;63.40;;;;;;5055350;28;20045;-49
2023/01/24 10:48:35;;;;;;;12.80;9.93;;;7.80;62.80;;;;;;5061527;28;20121;-50
2023/01/24 10:51:23;;;;;;;12.05;9.55;;;7.80;62.80;;;;;;5073189;28;20042;-48
2023/01/24 10:53:50;;;;;;;13.15;10.55;;;7.90;62.50;;;;;;5064032;28;20045;-48
2023/01/24 10:56:20;;;;;;;13.60;10.80;;;7.90;63.10;;;;;;5059879;28;20407;-51
2023/01/24 10:59:00;;;;;;;12.05;9.93;;;7.90;63.00;;;;;;5054075;28;20124;-52
2023/01/24 11:01:43;;;;;;;13.70;11.13;;;7.90;62.60;;;;;;5066783;28;20040;-52
2023/01/24 11:04:23;;;;;;;14.23;10.45;;;7.90;62.20;;;;;;5063555;28;20041;-47
2023/01/24 11:06:51;;;;;;;14.27;10.60;;;7.90;62.20;;;;;;5057186;28;20044;-48
2023/01/24 11:09:24;;;;;;;14.30;10.57;;;7.90;62.50;;;;;;5065875;28;20043;-52
2023/01/24 11:11:56;;;;;;;12.55;9.70;;;7.90;62.40;;;;;;5059847;28;20047;-52
2023/01/24 11:14:24;;;;;;;;;;;8.00;62.50;;;;;;5069568;28;20044;-48
2023/01/24 11:16:58;;;;;;;13.10;9.18;;;8.00;62.60;;;;;;5058008;28;20586;-49
2023/01/24 11:19:39;;;;;;;10.60;9.48;;;8.00;62.50;;;;;;5057030;28;20448;-49
2023/01/24 11:22:33;;;;;;;12.15;10.57;;;8.00;62.00;;;;;;5057545;28;20048;-51
2023/01/24 11:25:02;;;;;;;17.88;10.98;;;8.00;61.90;;;;;;5057874;28;20064;-50
2023/01/24 11:27:30;;;;;;;12.52;10.30;;;7.90;62.50;;;;;;5067295;28;20128;-47
2023/01/24 11:30:19;;;;;;;14.90;11.80;;;7.90;62.70;;;;;;5065782;28;20521;-49
2023/01/24 11:33:09;;;;;;;15.23;10.77;;;7.90;61.90;;;;;;5055578;28;20062;-49
2023/01/24 11:35:46;;;;;;;13.50;10.65;;;7.90;62.70;;;;;;5070269;28;20044;-50
2023/01/24 11:38:24;;;;;;;13.80;10.38;;;8.00;62.40;;;;;;5060964;28;20037;-51
2023/01/24 11:41:10;;;;;;;16.40;12.93;;;8.00;62.50;;;;;;5064580;28;20044;-52
2023/01/24 11:43:55;;;;;;;16.55;12.60;;;8.00;61.90;;;;;;5072255;28;20075;-52
2023/01/24 11:46:38;;;;;;;14.02;11.27;;;8.00;62.20;;;;;;5064164;28;20032;-52
2023/01/24 11:49:25;;;;;;;13.25;11.38;;;8.00;62.30;;;;;;5060178;28;20040;-52
2023/01/24 11:52:15;;;;;;;14.02;10.55;;;8.10;62.70;;;;;;5065689;28;20068;-52
2023/01/24 11:55:00;;;;;;;13.77;10.30;;;8.10;62.60;;;;;;5071657;28;20032;-52
2023/01/24 11:57:52;;;;;;;14.60;10.82;;;8.20;62.40;;;;;;5065572;28;20047;-52
2023/01/24 12:00:29;;;;;;;11.77;9.05;;;8.20;62.20;;;;;;5063175;28;20135;-51
2023/01/24 12:03:19;;;;;;;11.80;9.55;;;8.30;62.40;;;;;;5071123;28;20048;-48
2023/01/24 12:06:07;;;;;;;13.07;9.80;;;8.30;61.70;;;;;;5061914;28;20036;-50
2023/01/24 12:09:06;;;;;;;10.73;8.68;;;8.30;62.00;;;;;;5069694;28;20123;-50
2023/01/24 12:11:58;;;;;;;12.85;9.98;;;8.30;61.70;;;;;;5071410;28;20119;-52
2023/01/24 12:14:48;;;;;;;12.70;10.48;;;8.40;61.70;;;;;;5067683;28;20042;-52
2023/01/24 12:17:46;;;;;;;11.20;9.30;;;8.40;62.20;;;;;;5064786;28;20374;-51
2023/01/24 12:20:23;;;;;;;10.98;9.32;;;8.40;61.40;;;;;;5067148;28;20412;-49
2023/01/24 12:23:03;;;;;;;14.05;10.13;;;8.40;61.80;;;;;;5053848;28;20040;-51
2023/01/24 12:25:34;;;;;;;;;;;8.40;61.90;;;;;;5067871;28;20119;-52
2023/01/24 12:28:11;;;;;;;12.25;8.15;;;8.40;61.70;;;;;;5068613;28;19920;-50
2023/01/24 12:30:44;;;;;;;11.32;9.23;;;8.40;61.90;;;;;;5071065;28;20032;-52
2023/01/24 12:33:24;;;;;;;11.48;9.02;;;8.40;61.70;;;;;;5066034;28;20097;-50
2023/01/24 12:36:02;;;;;;;10.98;8.52;;;8.40;62.00;;;;;;5065616;28;20048;-51
2023/01/24 12:38:38;;;;;;;10.18;8.50;;;8.40;61.70;;;;;;5062534;28;20044;-50
2023/01/24 12:41:29;;;;;;;13.88;10.60;;;8.40;61.50;;;;;;5070374;28;20032;-50
2023/01/24 12:44:25;;;;;;;14.13;9.73;;;8.40;61.60;;;;;;5053105;28;20071;-52
2023/01/24 12:47:19;;;;;;;43.85;26.75;;;8.40;61.50;;;;;;5058381;28;20037;-52
2023/01/24 12:50:02;;;;;;;31.80;20.60;;;8.40;61.10;;;;;;5055456;28;20036;-47
2023/01/24 12:52:47;;;;;;;31.30;20.33;;;8.40;61.70;;;;;;5065851;28;20112;-50
2023/01/24 12:55:42;;;;;;;21.08;15.27;;;8.40;61.30;;;;;;5058708;28;20678;-49
2023/01/24 12:58:33;;;;;;;19.92;13.18;;;8.40;61.20;;;;;;5065346;28;20036;-48
2023/01/24 13:01:36;;;;;;;13.93;9.73;;;8.40;61.20;;;;;;5054346;28;20036;-48
2023/01/24 13:04:18;;;;;;;12.50;9.25;;;8.40;60.70;;;;;;5062023;28;20426;-52
2023/01/24 13:07:25;;;;;;;12.20;8.93;;;8.40;60.90;;;;;;5069691;28;20035;-49
2023/01/24 13:10:18;;;;;;;10.98;8.75;;;8.40;60.70;;;;;;5070731;28;20036;-49
2023/01/24 13:12:46;;;;;;;11.13;9.70;;;8.40;61.40;;;;;;5039084;28;20603;-50
2023/01/24 13:15:37;;;;;;;12.55;9.43;;;8.40;61.50;;;;;;5060581;28;20071;-48
2023/01/24 13:18:24;;;;;;;;;;;8.40;61.00;;;;;;5057821;28;20047;-48
2023/01/24 13:21:07;;;;;;;10.38;8.38;;;8.50;61.60;;;;;;5056824;28;20074;-48
2023/01/24 13:24:03;;;;;;;13.18;10.20;;;8.50;61.10;;;;;;5059620;28;20041;-50
2023/01/24 13:26:30;;;;;;;10.40;9.25;;;8.50;60.60;;;;;;5070698;28;20454;-52
2023/01/24 13:29:26;;;;;;;11.55;8.95;;;8.50;61.30;;;;;;5061028;28;20405;-52
2023/01/24 13:32:06;;;;;;;10.73;9.50;;;8.40;60.40;;;;;;5060846;28;20642;-51
2023/01/24 13:34:40;;;;;;;10.73;8.93;;;8.40;61.00;;;;;;5061353;28;20076;-51
2023/01/24 13:37:14;;;;;;;9.82;8.73;;;8.40;61.00;;;;;;5069573;28;20032;-49
2023/01/24 13:39:41;;;;;;;11.63;9.48;;;8.40;61.20;;;;;;5064985;28;20083;-48
2023/01/24 13:42:31;;;;;;;10.45;8.75;;;8.40;61.10;;;;;;5068981;28;20045;-50
2023/01/24 13:44:57;;;;;;;11.18;9.68;;;8.40;60.50;;;;;;5054372;28;20047;-51
2023/01/24 13:47:34;;;;;;;11.02;9.25;;;8.40;61.10;;;;;;5068991;28;20055;-48
2023/01/24 13:50:11;;;;;;;11.10;9.18;;;8.40;61.00;;;;;;5059535;28;20037;-48
2023/01/24 13:52:40;;;;;;;12.23;9.88;;;8.40;60.80;;;;;;5061438;28;20051;-52
2023/01/24 13:55:29;;;;;;;13.55;11.32;;;8.40;61.10;;;;;;5069598;28;20060;-53
2023/01/24 13:58:19;;;;;;;12.45;10.25;;;8.40;60.80;;;;;;5054799;28;20042;-49